This is the latest recevied weather packets stored in our database for station/object TA6B-11. If no packets are shown the sender has not sent any weather packets the latest 10 day(s).
| Time | Temp. | Humidity | Pressure | Rain* | Wind** | Luminosity | Snow |
|---|---|---|---|---|---|---|---|
| 1787908786 | 28.89° C | 49% | 1000 hPa | - | - | 0 W/m² | - |
| 1787908462 | 28.89° C | 49% | 1000 hPa | - | - | 0 W/m² | - |
| 1787908178 | 30° C | 47% | 1000 hPa | - | - | 0 W/m² | - |
| 1787907986 | 30° C | 48% | 1000 hPa | - | - | 0 W/m² | - |
| 1787907660 | 30° C | 49% | 1000 hPa | - | - | 0 W/m² | - |
| 1787907335 | 29.44° C | 50% | 1000 hPa | - | - | 0 W/m² | - |
| 1787907010 | 29.44° C | 50% | 1000 hPa | - | - | 0 W/m² | - |
| 1787906684 | 29.44° C | 50% | 1000 hPa | - | - | 0 W/m² | - |
| 1787906360 | 28.89° C | 51% | 1000 hPa | - | - | 0 W/m² | - |
| 1787906037 | 28.89° C | 50% | 1000 hPa | - | - | 0 W/m² | - |
| 1787905713 | 28.89° C | 50% | 1000 hPa | - | - | 0 W/m² | - |
| 1787905387 | 28.33° C | 52% | 1000 hPa | - | - | 0 W/m² | - |
| 1787905064 | 27.78° C | 53% | 1000 hPa | - | - | 0 W/m² | - |
| 1787904740 | 27.78° C | 55% | 1000 hPa | - | - | 0 W/m² | - |
| 1787904415 | 27.22° C | 57% | 1000 hPa | - | - | 0 W/m² | - |
| 1787904089 | 26.67° C | 59% | 1000 hPa | - | - | 0 W/m² | - |
| 1787903765 | 26.11° C | 61% | 1000 hPa | - | - | 0 W/m² | - |
| 1787903440 | 25.56° C | 64% | 1000 hPa | - | - | 0 W/m² | - |
| 1787903116 | 25.56° C | 66% | 1000 hPa | - | - | 0 W/m² | - |
| 1787902791 | 25.56° C | 65% | 1000 hPa | - | - | 0 W/m² | - |
| 1787902468 | 25.56° C | 65% | 1000 hPa | - | - | 0 W/m² | - |
| 1787902143 | 25.56° C | 66% | 1000 hPa | - | - | 0 W/m² | - |
| 1787901818 | 25.56° C | 66% | 1000 hPa | - | - | 0 W/m² | - |
| 1787901492 | 25.56° C | 65% | 1000 hPa | - | - | 0 W/m² | - |
| 1787901169 | 25.56° C | 64% | 1000 hPa | - | - | 0 W/m² | - |
* Rain since midnight (hover to see other rain measurements)
** Current wind speed in m/s (hover to see current wind gust speed)